Portada
METAR-TAF:

METAR-TAF

Aeroports :

Laupheim, Alemanya

latitud: 48-13N, longitud: 009-55E, altitud: 538 m

Observació

L'informe es va fer fa 24 minuts, a les 05:20 UTC
Vent 9 kt del Sud-Oest
Temperatura 6°C
Humitat 75%
Pressió 1025 hPa
Visibilitat 10 km o més
Cel ennuvolat a una alçada de 2900 ft

METAR: ETHL 230520Z 22009KT 9999 BKN029 06/02 Q1025 BLU

Hora: 06:44 (05:44 UTC)


TAF: manca

Observacions i pronòstics meteorològics de més de 4000 aeroports (METAR i TAF).

Les estacions disponibles són els punts grocs i vermells al mapa.

Posi el ratolí al punt desitjat per veure el nom de l'estació.

Feu clic per veure les observacions i els pronòstics meteorològics.

Per canviar el mapa: feu clic els botons verds amb una creu de color negre per apropar; al botó verd amb un guió per allunyar la imatge; o en les fletxes verdes per a mapes adjacents.


METAR-TAF: